Time;durP1;ratioP1;P1;durP2;ratioP2;P2;SDS_P1;SDS_P2;PMS_P1;PMS_P2;Temp;Humidity;BMP_temperature;BMP_pressure;BME280_temperature;BME280_humidity;BME280_pressure;Samples;Min_cycle;Max_cycle;Signal;HPM_P1;HPM_P2
2022/05/18 00:02:20;;;;;;;4.40;3.33;;;15.50;99.90;16.70;97298.00;;;;5049297;28;20209;-65
2022/05/18 00:05:10;;;;;;;4.80;2.83;;;15.50;99.90;16.80;97306.00;;;;5048922;28;20583;-64
2022/05/18 00:07:59;;;;;;;3.63;2.60;;;15.50;99.90;16.70;97305.00;;;;5052474;28;20227;-65
2022/05/18 00:10:50;;;;;;;4.33;3.20;;;15.50;99.90;16.70;97312.00;;;;5052801;28;20264;-65
2022/05/18 00:13:42;;;;;;;3.73;3.17;;;15.40;99.90;16.70;97315.00;;;;5052544;28;20228;-65
2022/05/18 00:16:31;;;;;;;4.17;3.40;;;15.40;99.90;16.60;97322.00;;;;5052965;28;20212;-64
2022/05/18 00:19:20;;;;;;;3.80;2.97;;;15.40;99.90;16.60;97319.00;;;;5044691;28;20559;-65
2022/05/18 00:22:09;;;;;;;3.10;2.90;;;15.40;99.90;16.50;97324.00;;;;5040129;28;20570;-64
2022/05/18 00:25:01;;;;;;;3.47;3.13;;;15.40;99.90;16.70;97336.00;;;;5052129;28;20683;-65
2022/05/18 00:27:50;;;;;;;3.50;2.90;;;15.40;99.90;16.70;97337.00;;;;5053125;28;20220;-66
2022/05/18 00:30:40;;;;;;;3.00;2.70;;;15.40;99.90;16.80;97334.00;;;;5051929;28;20211;-66
2022/05/18 00:33:30;;;;;;;3.40;3.10;;;15.50;99.90;16.90;97322.00;;;;5051700;28;20251;-66
2022/05/18 00:36:19;;;;;;;3.53;2.97;;;15.50;99.90;16.90;97331.00;;;;5052028;28;20208;-66
2022/05/18 00:39:08;;;;;;;3.53;3.20;;;15.70;99.90;16.80;97329.00;;;;5051833;28;20224;-64
2022/05/18 00:41:57;;;;;;;2.70;2.50;;;16.00;99.90;16.80;97337.00;;;;5041233;28;20201;-65
2022/05/18 00:44:46;;;;;;;3.57;3.27;;;15.20;99.90;16.70;97335.00;;;;5052055;28;20205;-66
2022/05/18 00:47:36;;;;;;;3.80;2.53;;;15.50;99.90;16.60;97333.00;;;;5051005;28;20232;-65
2022/05/18 00:50:30;;;;;;;3.03;2.60;;;15.50;99.90;16.40;97346.00;;;;5052658;28;20209;-65
2022/05/18 00:53:25;;;;;;;2.77;2.50;;;15.40;99.90;16.20;97351.00;;;;5048750;28;20209;-66
2022/05/18 00:56:19;;;;;;;5.43;3.00;;;15.30;99.90;16.40;97347.00;;;;5047282;28;20207;-65
2022/05/18 00:59:18;;;;;;;3.50;3.20;;;15.30;99.90;16.50;97351.00;;;;5050791;28;20598;-66
2022/05/18 01:02:09;;;;;;;3.57;3.27;;;15.20;99.90;16.20;97358.00;;;;5051530;28;20691;-66
2022/05/18 01:05:04;;;;;;;5.23;3.23;;;15.10;99.90;16.20;97361.00;;;;5051800;28;20215;-65
2022/05/18 01:07:56;;;;;;;4.03;2.83;;;15.10;99.90;16.10;97358.00;;;;5050873;28;20217;-65
2022/05/18 01:10:45;;;;;;;4.80;2.87;;;15.10;99.90;15.80;97351.00;;;;5052133;28;20201;-65
2022/05/18 01:13:34;;;;;;;4.15;3.00;;;15.00;99.90;15.80;97349.00;;;;5051389;28;20212;-65
2022/05/18 01:16:26;;;;;;;5.93;3.27;;;14.90;99.90;15.60;97352.00;;;;5051533;28;20211;-65
2022/05/18 01:19:23;;;;;;;4.07;3.60;;;14.80;99.90;15.60;97354.00;;;;5049585;28;20240;-65
2022/05/18 01:22:23;;;;;;;3.10;2.80;;;14.70;99.90;15.70;97338.00;;;;5039323;28;20204;-65
2022/05/18 01:25:31;;;;;;;9.20;3.20;;;14.70;99.90;15.70;97351.00;;;;5051231;28;20205;-65
2022/05/18 01:28:24;;;;;;;4.97;2.93;;;14.40;99.90;15.50;97357.00;;;;5050575;28;20232;-66
2022/05/18 01:31:13;;;;;;;3.40;3.10;;;14.60;99.90;15.60;97336.00;;;;5051017;28;20651;-66
2022/05/18 01:34:02;;;;;;;4.77;3.70;;;14.60;99.90;15.70;97343.00;;;;5042900;28;20235;-66
2022/05/18 01:36:51;;;;;;;5.10;3.23;;;14.60;99.90;15.60;97344.00;;;;5049946;28;20193;-63
2022/05/18 01:39:46;;;;;;;3.67;2.97;;;14.60;99.90;15.80;97347.00;;;;5048432;28;20551;-65
2022/05/18 01:42:40;;;;;;;3.00;2.80;;;14.60;99.90;15.70;97345.00;;;;5050271;28;20197;-65
2022/05/18 01:45:31;;;;;;;4.73;3.30;;;14.60;99.90;15.80;97352.00;;;;5050299;28;20238;-64
2022/05/18 01:48:24;;;;;;;3.17;2.90;;;14.70;99.90;15.70;97354.00;;;;5053016;28;20585;-65
2022/05/18 01:51:24;;;;;;;3.00;2.80;;;14.70;99.90;15.60;97358.00;;;;5050137;28;20200;-65
2022/05/18 01:54:13;;;;;;;11.07;3.47;;;14.70;99.90;15.80;97371.00;;;;5048566;28;20224;-65
2022/05/18 01:57:02;;;;;;;4.80;2.90;;;14.70;99.90;15.70;97366.00;;;;5049666;28;20205;-65
2022/05/18 01:59:51;;;;;;;4.23;3.10;;;14.70;99.90;15.70;97369.00;;;;5049753;28;20659;-66
2022/05/18 02:02:41;;;;;;;3.63;3.27;;;14.70;99.90;15.70;97370.00;;;;5050244;28;20197;-65
2022/05/18 02:05:31;;;;;;;3.47;3.17;;;14.60;99.90;15.80;97373.00;;;;5049869;28;20208;-65
2022/05/18 02:08:21;;;;;;;4.23;3.00;;;14.60;99.90;15.50;97381.00;;;;5050473;28;20223;-65
2022/05/18 02:11:13;;;;;;;3.60;3.10;;;14.50;99.90;15.50;97375.00;;;;5050639;28;20223;-66
2022/05/18 02:14:01;;;;;;;3.60;3.30;;;14.50;99.90;15.70;97373.00;;;;5050388;28;20205;-66
2022/05/18 02:16:50;;;;;;;3.10;2.63;;;14.50;99.90;15.50;97368.00;;;;5049241;28;20683;-65
2022/05/18 02:19:41;;;;;;;3.20;2.90;;;14.50;99.90;15.50;97366.00;;;;5049827;28;20706;-65
2022/05/18 02:22:29;;;;;;;2.97;2.77;;;14.40;99.90;15.50;97370.00;;;;5049938;28;20235;-65
2022/05/18 02:25:19;;;;;;;3.20;3.00;;;14.40;99.90;15.50;97372.00;;;;5050250;28;20208;-63
2022/05/18 02:28:08;;;;;;;3.60;3.03;;;14.40;99.90;15.40;97367.00;;;;5047393;28;20229;-66
2022/05/18 02:30:56;;;;;;;3.03;2.73;;;14.20;99.90;15.40;97377.00;;;;5050616;28;20200;-65
2022/05/18 02:33:45;;;;;;;5.10;3.57;;;14.30;99.90;15.40;97373.00;;;;5050667;28;20281;-65
2022/05/18 02:36:35;;;;;;;5.83;3.57;;;14.30;99.90;15.50;97374.00;;;;5045537;28;20665;-64
2022/05/18 02:39:25;;;;;;;4.43;3.17;;;14.30;99.90;15.50;97374.00;;;;5047423;28;20205;-65
2022/05/18 02:42:13;;;;;;;6.30;3.90;;;14.30;99.90;15.50;97376.00;;;;5049650;28;20200;-65
2022/05/18 02:45:03;;;;;;;5.30;4.13;;;14.30;99.90;15.50;97375.00;;;;5038601;28;20577;-65
2022/05/18 02:47:53;;;;;;;4.40;3.30;;;14.30;99.90;15.40;97386.00;;;;5044160;28;20228;-65
2022/05/18 02:50:47;;;;;;;3.07;2.77;;;14.30;99.90;15.30;97389.00;;;;5049058;28;20219;-65
2022/05/18 02:53:37;;;;;;;4.17;2.93;;;14.30;99.90;15.20;97390.00;;;;5050010;28;20212;-65
2022/05/18 02:56:27;;;;;;;3.10;2.47;;;14.30;99.90;15.20;97393.00;;;;5045988;28;20624;-65
2022/05/18 02:59:15;;;;;;;2.87;2.57;;;14.20;99.90;15.20;97401.00;;;;5049664;28;20217;-65
2022/05/18 03:02:05;;;;;;;2.87;2.63;;;14.10;99.90;14.90;97411.00;;;;5049849;28;20204;-65
2022/05/18 03:04:53;;;;;;;3.97;3.27;;;14.10;99.90;14.40;97413.00;;;;5041742;28;20706;-65
2022/05/18 03:07:43;;;;;;;3.37;3.07;;;13.90;99.90;14.50;97418.00;;;;5047954;28;20225;-64
2022/05/18 03:10:33;;;;;;;3.47;3.17;;;13.80;99.90;14.40;97424.00;;;;5050095;28;20232;-65
2022/05/18 03:13:22;;;;;;;2.90;2.63;;;13.70;99.90;14.40;97424.00;;;;5051903;28;20204;-65
2022/05/18 03:16:11;;;;;;;4.87;3.07;;;13.60;99.90;13.90;97422.00;;;;5053956;28;20217;-65
2022/05/18 03:19:00;;;;;;;4.80;3.20;;;13.40;99.90;13.90;97430.00;;;;5053224;28;20224;-65
2022/05/18 03:24:55;;;;;;;2.90;2.67;;;13.20;99.90;13.60;97438.00;;;;5051187;28;20200;-65
2022/05/18 03:27:46;;;;;;;3.20;2.67;;;13.10;99.90;13.40;97443.00;;;;5053074;28;20224;-63
2022/05/18 03:30:34;;;;;;;3.63;3.27;;;12.90;99.90;13.40;97447.00;;;;5043954;28;20196;-65
2022/05/18 03:33:24;;;;;;;2.70;2.50;;;12.80;99.90;13.60;97453.00;;;;5052073;28;20566;-65
2022/05/18 03:36:15;;;;;;;3.67;3.00;;;12.70;99.90;13.80;97462.00;;;;5053245;28;21521;-65
2022/05/18 03:39:05;;;;;;;4.90;3.27;;;12.80;99.90;13.60;97461.00;;;;5053462;28;20229;-65
2022/05/18 03:41:55;;;;;;;3.20;2.90;;;12.60;99.90;13.50;97461.00;;;;5053620;28;20699;-64
2022/05/18 03:44:45;;;;;;;3.93;2.70;;;12.80;99.90;13.30;97471.00;;;;5037910;28;20204;-64
2022/05/18 03:47:34;;;;;;;6.13;3.20;;;12.60;99.90;13.40;97476.00;;;;5052432;28;20224;-65
2022/05/18 03:50:24;;;;;;;3.83;2.90;;;12.60;99.90;13.50;97491.00;;;;5052489;28;20215;-65
2022/05/18 03:53:14;;;;;;;5.53;3.60;;;12.70;99.90;13.50;97486.00;;;;5052970;28;20642;-63
2022/05/18 03:56:03;;;;;;;3.00;2.70;;;12.50;99.90;13.50;97481.00;;;;5052056;28;20236;-64
2022/05/18 03:58:52;;;;;;;3.23;2.47;;;12.60;99.90;13.70;97487.00;;;;5053008;28;20227;-66
2022/05/18 04:01:42;;;;;;;3.20;2.90;;;12.50;99.90;13.80;97485.00;;;;5051936;28;20205;-64
2022/05/18 04:04:31;;;;;;;3.53;3.10;;;12.80;99.90;13.80;97486.00;;;;5051559;28;20210;-64
2022/05/18 04:10:10;;;;;;;2.70;2.50;;;12.90;99.90;14.00;97497.00;;;;4971195;28;20200;-67
2022/05/18 04:12:58;;;;;;;4.07;3.47;;;12.80;99.90;13.80;97497.00;;;;4971702;28;20683;-66
2022/05/18 04:15:47;;;;;;;3.47;3.07;;;12.80;99.90;13.70;97509.00;;;;4973056;28;20226;-67
2022/05/18 04:18:38;;;;;;;4.57;3.17;;;12.80;99.90;14.10;97516.00;;;;4982942;28;20703;-66
2022/05/18 04:21:27;;;;;;;6.77;3.60;;;12.90;99.90;14.30;97514.00;;;;4992546;28;20206;-66
2022/05/18 04:24:15;;;;;;;4.00;3.33;;;12.50;99.90;14.30;97522.00;;;;4992377;28;20195;-67
2022/05/18 04:27:06;;;;;;;3.27;3.00;;;13.10;99.90;14.20;97524.00;;;;4990124;28;20229;-67
2022/05/18 04:29:54;;;;;;;2.87;2.67;;;13.10;99.90;14.00;97528.00;;;;4995025;28;20194;-66
2022/05/18 04:32:43;;;;;;;5.60;3.30;;;13.20;99.90;14.00;97534.00;;;;4993408;28;20203;-66
2022/05/18 04:35:34;;;;;;;3.17;2.97;;;13.10;99.90;14.20;97536.00;;;;4992661;28;20234;-66
2022/05/18 04:38:24;;;;;;;3.00;2.73;;;13.10;99.90;14.50;97539.00;;;;4991163;28;20245;-67
2022/05/18 04:41:16;;;;;;;3.00;2.70;;;13.20;99.90;14.70;97550.00;;;;4992785;28;20196;-66
2022/05/18 04:44:05;;;;;;;5.83;2.37;;;13.40;99.90;15.00;97561.00;;;;4992134;28;20207;-67
2022/05/18 04:46:58;;;;;;;7.30;3.43;;;13.40;99.90;15.20;97556.00;;;;4994208;28;20470;-67
2022/05/18 04:49:46;;;;;;;4.73;3.00;;;13.60;99.90;15.40;97560.00;;;;4983665;28;20248;-67
2022/05/18 04:52:37;;;;;;;3.40;3.10;;;13.70;99.90;15.60;97562.00;;;;4994210;28;20213;-67
2022/05/18 04:55:25;;;;;;;3.30;3.00;;;13.90;99.90;15.40;97562.00;;;;4991942;28;20206;-67
2022/05/18 04:58:14;;;;;;;6.10;3.37;;;14.10;99.90;15.00;97563.00;;;;4993918;28;20237;-68
2022/05/18 05:01:10;;;;;;;5.10;3.27;;;14.10;99.90;15.40;97566.00;;;;4987896;28;20207;-67
2022/05/18 05:03:58;;;;;;;5.27;2.97;;;14.20;99.90;15.70;97574.00;;;;4994612;28;20690;-69
2022/05/18 05:06:47;;;;;;;4.87;3.43;;;14.40;99.90;15.70;97578.00;;;;4993361;28;20202;-67
2022/05/18 05:09:38;;;;;;;5.80;3.33;;;14.60;99.90;16.00;97582.00;;;;4989688;28;20619;-67
2022/05/18 05:12:27;;;;;;;3.50;3.20;;;14.70;99.90;16.50;97596.00;;;;4988746;28;20202;-68
2022/05/18 05:15:16;;;;;;;4.60;3.20;;;14.80;99.90;16.90;97599.00;;;;4987037;28;20210;-68
2022/05/18 05:18:06;;;;;;;4.77;3.07;;;15.00;99.90;16.50;97605.00;;;;4986339;28;20238;-67
2022/05/18 05:20:55;;;;;;;4.70;3.03;;;15.20;99.90;16.40;97608.00;;;;4983074;28;20210;-67
2022/05/18 05:23:46;;;;;;;4.13;2.90;;;15.30;99.90;16.60;97611.00;;;;4986910;28;20217;-67
2022/05/18 05:26:36;;;;;;;4.30;3.47;;;15.40;99.90;16.80;97612.00;;;;4991994;28;20207;-67
2022/05/18 05:29:25;;;;;;;4.20;3.37;;;15.50;99.90;17.40;97610.00;;;;4990348;28;20226;-67
2022/05/18 05:32:14;;;;;;;6.60;3.00;;;15.70;99.90;17.50;97617.00;;;;4991519;28;20202;-67
2022/05/18 05:35:04;;;;;;;3.47;2.87;;;15.90;99.90;17.70;97614.00;;;;4986022;28;20233;-67
2022/05/18 05:37:53;;;;;;;3.17;2.60;;;16.00;99.90;18.10;97613.00;;;;4987673;28;20230;-67
2022/05/18 05:40:41;;;;;;;3.13;2.80;;;16.20;99.90;18.00;97612.00;;;;4981188;28;20207;-68
2022/05/18 05:43:33;;;;;;;2.97;2.10;;;16.40;99.90;18.40;97615.00;;;;4987641;28;20209;-67
2022/05/18 05:46:21;;;;;;;5.87;2.27;;;16.60;99.90;18.50;97623.00;;;;4989509;28;20198;-68
2022/05/18 05:49:12;;;;;;;6.40;2.43;;;16.80;99.90;18.90;97620.00;;;;4991658;28;20223;-67
2022/05/18 05:52:01;;;;;;;6.43;3.07;;;17.10;99.90;19.30;97628.00;;;;4993529;28;20803;-68
2022/05/18 05:54:49;;;;;;;2.50;2.30;;;17.20;99.90;19.40;97634.00;;;;4988726;28;20199;-67
2022/05/18 05:57:38;;;;;;;2.70;2.00;;;17.50;99.90;19.40;97636.00;;;;4990980;28;20249;-68
2022/05/18 06:00:28;;;;;;;3.97;1.80;;;17.60;99.90;19.20;97645.00;;;;4989477;28;20218;-68
2022/05/18 06:03:18;;;;;;;4.50;2.20;;;17.80;99.90;19.40;97638.00;;;;4990732;28;20206;-69
2022/05/18 06:06:08;;;;;;;4.10;2.20;;;17.90;99.90;19.90;97654.00;;;;4988942;28;20198;-69
2022/05/18 06:08:57;;;;;;;2.37;2.17;;;18.00;99.90;19.90;97659.00;;;;4993646;28;20612;-69
2022/05/18 06:11:46;;;;;;;2.33;1.90;;;18.10;99.90;19.90;97665.00;;;;4993250;28;20218;-69
2022/05/18 06:14:37;;;;;;;4.17;2.67;;;18.30;99.90;20.10;97659.00;;;;4991722;28;20206;-69
2022/05/18 06:17:28;;;;;;;3.73;1.93;;;18.30;99.90;20.20;97658.00;;;;4991903;28;20604;-69
2022/05/18 06:20:17;;;;;;;4.07;1.90;;;18.40;99.90;20.30;97669.00;;;;4992602;28;20256;-69
2022/05/18 06:23:10;;;;;;;2.30;2.10;;;18.60;99.90;20.40;97678.00;;;;4998985;28;20620;-69
2022/05/18 06:26:05;;;;;;;3.07;1.70;;;18.30;99.90;20.50;97673.00;;;;4994297;28;20202;-69
2022/05/18 06:28:54;;;;;;;1.87;1.63;;;18.70;99.90;20.50;97669.00;;;;4982161;28;20222;-69
2022/05/18 06:31:43;;;;;;;2.33;1.87;;;18.80;99.90;20.60;97673.00;;;;4991972;28;20198;-69
2022/05/18 06:34:34;;;;;;;2.30;2.10;;;18.90;99.90;20.60;97675.00;;;;4989403;28;20218;-69
2022/05/18 06:37:22;;;;;;;2.87;1.67;;;19.00;99.70;20.40;97683.00;;;;4998062;28;20230;-69
2022/05/18 06:40:12;;;;;;;3.93;2.40;;;19.00;98.10;20.70;97674.00;;;;4986288;28;20203;-69
2022/05/18 06:43:01;;;;;;;4.97;2.50;;;19.10;98.60;20.80;97675.00;;;;4987089;28;20206;-69
2022/05/18 06:45:50;;;;;;;2.63;2.00;;;19.10;99.00;20.80;97681.00;;;;4996356;28;20689;-69
2022/05/18 06:48:40;;;;;;;4.90;2.10;;;18.90;98.40;20.70;97674.00;;;;4990892;28;20235;-69
2022/05/18 06:51:37;;;;;;;3.13;2.57;;;19.20;98.50;20.90;97690.00;;;;4991831;28;20242;-69
2022/05/18 06:54:26;;;;;;;2.50;2.30;;;19.30;99.40;20.70;97685.00;;;;4994173;28;20206;-69
2022/05/18 06:57:26;;;;;;;2.33;1.90;;;19.40;99.80;20.00;97695.00;;;;4991062;28;20210;-69
2022/05/18 07:00:16;;;;;;;2.77;2.57;;;19.30;99.20;20.60;97683.00;;;;4992939;28;20202;-69
2022/05/18 07:03:06;;;;;;;5.80;2.60;;;19.30;99.90;20.30;97690.00;;;;4993417;28;20272;-69
2022/05/18 07:05:55;;;;;;;2.70;2.10;;;19.20;99.90;20.20;97695.00;;;;4991722;28;20201;-69
2022/05/18 07:08:45;;;;;;;3.53;2.83;;;19.60;99.90;21.00;97702.00;;;;4992884;28;20238;-69
2022/05/18 07:11:36;;;;;;;3.53;2.90;;;19.20;99.90;21.10;97689.00;;;;4991635;28;20210;-69
2022/05/18 07:14:28;;;;;;;3.17;2.57;;;19.40;99.90;20.60;97711.00;;;;4991371;28;20229;-69
2022/05/18 07:17:17;;;;;;;6.20;4.03;;;19.30;99.90;20.20;97693.00;;;;4993959;28;20226;-68
2022/05/18 07:20:07;;;;;;;5.70;3.30;;;19.20;99.90;21.00;97703.00;;;;4991479;28;20218;-69
2022/05/18 07:22:56;;;;;;;4.93;3.50;;;19.30;99.90;21.20;97707.00;;;;4992438;28;20198;-69
2022/05/18 07:25:46;;;;;;;5.33;3.50;;;19.40;99.90;21.30;97705.00;;;;4990303;28;20211;-69
2022/05/18 07:28:36;;;;;;;4.67;3.03;;;19.60;99.90;21.20;97699.00;;;;4992103;28;20225;-69
2022/05/18 07:31:26;;;;;;;6.00;3.20;;;19.70;99.90;21.70;97707.00;;;;4991603;28;20218;-69
2022/05/18 07:34:35;;;;;;;2.60;2.40;;;19.90;99.90;21.90;97692.00;;;;4991952;28;20647;-69
2022/05/18 07:37:24;;;;;;;3.03;2.77;;;20.10;99.90;21.40;97695.00;;;;4988692;28;20219;-69
2022/05/18 07:40:13;;;;;;;3.73;3.17;;;20.10;99.90;22.00;97707.00;;;;4990870;28;20214;-69
2022/05/18 07:43:04;;;;;;;3.23;2.57;;;20.10;99.90;21.20;97723.00;;;;4991110;28;20207;-69
2022/05/18 07:45:55;;;;;;;4.30;2.50;;;20.10;98.50;21.10;97726.00;;;;4990873;28;20202;-69
2022/05/18 07:48:44;;;;;;;2.80;2.50;;;20.00;98.50;20.30;97707.00;;;;4989313;28;20247;-68
2022/05/18 07:51:33;;;;;;;2.67;2.47;;;19.70;97.40;21.70;97707.00;;;;4990185;28;20202;-69
2022/05/18 07:54:22;;;;;;;3.97;2.60;;;19.90;98.20;21.30;97705.00;;;;4988303;28;20211;-68
2022/05/18 07:57:11;;;;;;;6.90;3.00;;;20.10;98.70;21.40;97707.00;;;;4986225;28;20230;-69
2022/05/18 08:00:02;;;;;;;3.60;2.43;;;20.20;97.40;22.20;97721.00;;;;4995434;28;20215;-68
2022/05/18 08:02:51;;;;;;;5.83;3.03;;;20.40;97.10;22.20;97714.00;;;;4994484;28;20577;-69
2022/05/18 08:05:41;;;;;;;2.87;2.37;;;20.60;95.50;22.50;97715.00;;;;4992985;28;20210;-69
2022/05/18 08:08:30;;;;;;;2.80;2.50;;;20.80;95.00;22.80;97723.00;;;;4980703;28;20718;-69
2022/05/18 08:17:32;;;;;;;3.93;2.17;;;20.90;91.10;21.60;97718.00;;;;4994108;28;20233;-69
2022/05/18 08:20:23;;;;;;;2.90;2.13;;;20.80;92.00;22.40;97726.00;;;;4994838;28;20206;-68
2022/05/18 08:23:13;;;;;;;5.27;2.03;;;20.90;92.10;21.50;97710.00;;;;4993780;28;20213;-69
2022/05/18 08:26:03;;;;;;;3.97;3.03;;;20.70;91.60;22.50;97723.00;;;;4992912;28;20210;-69
2022/05/18 08:28:52;;;;;;;2.93;2.60;;;20.90;92.20;22.70;97714.00;;;;4993395;28;20222;-69
2022/05/18 08:31:41;;;;;;;3.63;2.17;;;21.10;91.30;23.10;97721.00;;;;4993718;28;20199;-69
2022/05/18 08:34:31;;;;;;;3.00;2.63;;;21.30;90.90;22.90;97733.00;;;;4992132;28;20218;-68
2022/05/18 08:37:22;;;;;;;2.43;2.23;;;21.50;90.60;23.00;97724.00;;;;4990580;28;20209;-68
2022/05/18 08:40:27;;;;;;;3.70;2.40;;;21.60;89.40;24.00;97725.00;;;;4989061;28;20218;-68
2022/05/18 08:43:25;;;;;;;3.63;2.10;;;21.90;90.50;23.10;97732.00;;;;4990317;28;20206;-68
2022/05/18 08:46:18;;;;;;;3.93;2.03;;;22.10;87.00;23.40;97731.00;;;;4989050;28;20210;-68
2022/05/18 08:49:14;;;;;;;5.80;2.63;;;22.20;86.20;21.80;97720.00;;;;4993498;28;20222;-69
2022/05/18 08:52:40;;;;;;;4.97;2.53;;;22.00;82.30;22.60;97711.00;;;;4990118;28;20682;-69
2022/05/18 08:55:54;;;;;;;2.50;1.90;;;21.80;81.90;24.00;97718.00;;;;4991022;28;20218;-68
2022/05/18 08:58:47;;;;;;;2.60;2.00;;;21.90;82.70;24.30;97732.00;;;;4991641;28;20245;-69
2022/05/18 09:01:41;;;;;;;3.30;1.67;;;22.20;85.80;24.20;97729.00;;;;4992644;28;20199;-69
2022/05/18 09:04:42;;;;;;;2.27;1.77;;;22.40;80.30;24.10;97726.00;;;;4992961;28;20222;-68
2022/05/18 09:07:49;;;;;;;12.93;4.53;;;22.50;77.60;24.60;97728.00;;;;4990888;28;20238;-68
2022/05/18 09:10:42;;;;;;;3.23;1.67;;;22.60;80.50;23.60;97719.00;;;;4999593;28;20207;-68
2022/05/18 09:13:32;;;;;;;3.70;2.93;;;22.60;74.90;23.90;97720.00;;;;4992858;28;20203;-70
2022/05/18 09:16:30;;;;;;;4.23;2.10;;;22.70;79.40;23.80;97719.00;;;;5000976;28;20206;-68
2022/05/18 09:19:35;;;;;;;2.27;1.90;;;22.50;75.80;24.90;97718.00;;;;4991580;28;20226;-68
2022/05/18 09:22:39;;;;;;;2.70;1.77;;;22.70;76.80;25.70;97715.00;;;;4993518;28;20211;-69
2022/05/18 09:25:42;;;;;;;1.70;1.60;;;23.20;77.20;26.30;97722.00;;;;4990963;28;20241;-69
2022/05/18 09:28:49;;;;;;;3.50;1.80;;;23.70;76.40;26.50;97713.00;;;;4991632;28;20218;-68
2022/05/18 09:32:07;;;;;;;4.40;2.00;;;24.10;73.80;25.80;97726.00;;;;4991835;28;20210;-69
2022/05/18 09:35:18;;;;;;;2.97;1.90;;;24.30;68.30;26.10;97719.00;;;;4991918;28;20206;-69
2022/05/18 09:38:12;;;;;;;4.80;1.80;;;24.40;69.70;26.60;97716.00;;;;4989767;28;20748;-69
2022/05/18 09:41:07;;;;;;;2.03;1.50;;;24.60;70.80;26.00;97715.00;;;;4983701;28;20584;-68
2022/05/18 09:44:06;;;;;;;2.83;2.27;;;24.60;66.10;26.60;97718.00;;;;4983580;28;20207;-69
2022/05/18 09:46:57;;;;;;;5.27;2.63;;;24.70;66.50;25.90;97712.00;;;;4989508;28;20207;-68
2022/05/18 09:49:50;;;;;;;2.93;1.80;;;24.70;66.60;25.60;97747.00;;;;4989334;28;20213;-69
2022/05/18 09:52:41;;;;;;;2.20;1.80;;;24.60;65.50;24.90;97721.00;;;;4981442;28;20675;-68
2022/05/18 09:55:31;;;;;;;6.17;2.27;;;24.10;63.50;24.70;97683.00;;;;4991913;28;20859;-67
2022/05/18 09:58:29;;;;;;;2.53;2.33;;;24.00;60.70;26.00;97703.00;;;;4978476;28;20249;-67
2022/05/18 10:07:34;;;;;;;4.50;1.93;;;24.30;63.30;25.60;97715.00;;;;4988923;28;20505;-67
2022/05/18 10:10:29;;;;;;;2.53;1.43;;;24.50;62.20;25.20;97707.00;;;;5028363;22;20233;-64
2022/05/18 10:13:27;;;;;;;5.20;2.57;;;24.30;60.00;25.40;97693.00;;;;5006266;28;20210;-64
2022/05/18 10:16:39;;;;;;;3.77;2.10;;;24.40;62.10;26.60;97699.00;;;;4992472;28;20194;-64
2022/05/18 10:19:35;;;;;;;4.30;2.03;;;24.50;60.40;27.50;97703.00;;;;5007867;28;20233;-65
2022/05/18 10:22:28;;;;;;;1.97;1.60;;;24.90;62.50;26.50;97705.00;;;;5007523;28;20205;-65
2022/05/18 10:25:27;;;;;;;2.10;1.90;;;24.90;58.90;27.40;97690.00;;;;5007606;28;20874;-66
2022/05/18 10:28:22;;;;;;;2.27;1.83;;;25.10;59.40;28.00;97700.00;;;;4997619;28;20206;-65
2022/05/18 10:31:29;;;;;;;2.87;1.83;;;25.50;60.20;27.80;97690.00;;;;5008703;28;20207;-65
2022/05/18 10:34:28;;;;;;;5.27;1.70;;;26.00;59.70;27.90;97697.00;;;;5003204;28;20208;-65
2022/05/18 10:37:28;;;;;;;2.70;1.83;;;25.90;60.90;26.60;97688.00;;;;5004872;28;20596;-65
2022/05/18 10:40:21;;;;;;;1.93;1.50;;;25.70;57.10;25.10;97679.00;;;;5006957;28;20242;-64
2022/05/18 10:43:34;;;;;;;2.57;1.90;;;25.50;55.90;26.80;97679.00;;;;5004949;28;20916;-64
2022/05/18 10:46:40;;;;;;;5.97;1.80;;;25.40;56.60;27.40;97676.00;;;;5006557;28;20210;-64
2022/05/18 10:49:33;;;;;;;3.47;2.40;;;25.50;57.40;26.30;97673.00;;;;4999187;28;20280;-67
2022/05/18 10:52:33;;;;;;;2.73;1.97;;;25.20;56.20;24.60;97660.00;;;;5008536;28;20214;-64
2022/05/18 10:55:25;;;;;;;2.80;2.07;;;24.90;56.30;26.90;97678.00;;;;5009164;28;20198;-65
2022/05/18 10:58:25;;;;;;;3.10;1.43;;;24.90;57.70;27.60;97670.00;;;;4996074;28;20209;-65
2022/05/18 11:01:20;;;;;;;3.57;1.77;;;25.20;57.40;28.40;97681.00;;;;4997260;28;20214;-65
2022/05/18 11:04:19;;;;;;;2.80;1.57;;;25.60;57.70;27.30;97673.00;;;;5009948;28;20579;-65
2022/05/18 11:07:09;;;;;;;3.83;1.73;;;26.00;55.60;27.20;97672.00;;;;5000301;28;20226;-65
2022/05/18 11:09:58;;;;;;;1.83;1.60;;;25.90;56.20;26.50;97658.00;;;;5008862;28;20241;-65
2022/05/18 11:12:51;;;;;;;4.17;2.43;;;25.90;55.80;26.60;97651.00;;;;4996474;28;20209;-64
2022/05/18 11:15:50;;;;;;;1.77;1.63;;;25.60;54.00;26.60;97647.00;;;;5002166;28;20199;-64
2022/05/18 11:18:46;;;;;;;3.37;1.83;;;25.40;53.50;27.70;97664.00;;;;5014014;28;20610;-64
2022/05/18 11:21:47;;;;;;;8.77;2.37;;;25.30;54.70;26.00;97649.00;;;;5003653;28;20204;-63
2022/05/18 11:24:46;;;;;;;3.20;1.80;;;25.20;53.70;27.60;97647.00;;;;5008771;28;20797;-66
2022/05/18 11:28:01;;;;;;;5.33;1.93;;;25.40;55.30;26.00;97639.00;;;;5012148;28;20683;-65
2022/05/18 11:31:04;;;;;;;3.83;1.60;;;25.60;52.70;27.10;97635.00;;;;5012100;28;20679;-63
2022/05/18 11:34:05;;;;;;;2.17;1.60;;;25.70;52.60;26.20;97638.00;;;;5007932;28;20216;-63
2022/05/18 11:37:12;;;;;;;2.53;1.60;;;25.50;53.20;27.90;97633.00;;;;4994940;28;20219;-64
2022/05/18 11:40:13;;;;;;;3.10;1.37;;;25.50;53.80;27.90;97647.00;;;;5005573;28;20269;-65
2022/05/18 11:43:29;;;;;;;2.30;1.47;;;25.70;53.60;29.10;97640.00;;;;5007513;28;20203;-64
2022/05/18 11:46:47;;;;;;;4.17;1.73;;;26.20;55.10;28.90;97643.00;;;;5007674;28;20225;-65
2022/05/18 11:49:45;;;;;;;6.40;1.70;;;26.60;53.00;27.40;97627.00;;;;5014084;28;20221;-63
2022/05/18 11:52:56;;;;;;;2.17;1.50;;;26.50;51.70;27.90;97622.00;;;;5010460;28;20199;-64
2022/05/18 11:56:04;;;;;;;4.23;1.60;;;26.40;51.80;26.10;97622.00;;;;5008637;28;20220;-65
2022/05/18 11:59:23;;;;;;;5.30;1.97;;;26.00;51.60;27.40;97628.00;;;;5014030;28;20229;-64
2022/05/18 12:03:02;;;;;;;1.67;1.50;;;26.00;52.20;28.90;97633.00;;;;4993436;28;20213;-64
2022/05/18 12:06:31;;;;;;;3.33;1.67;;;26.30;51.70;29.90;97635.00;;;;4993186;28;20695;-70
2022/05/18 12:09:49;;;;;;;2.50;1.50;;;26.80;53.20;30.10;97642.00;;;;5012623;28;20241;-69
2022/05/18 12:12:47;;;;;;;3.83;1.90;;;27.40;51.70;28.40;97642.00;;;;5015426;28;20213;-66
2022/05/18 12:15:50;;;;;;;1.57;1.30;;;27.30;49.90;29.80;97639.00;;;;4994701;28;20574;-66
2022/05/18 12:18:44;;;;;;;2.50;1.57;;;27.40;50.10;29.60;97642.00;;;;4999641;28;20229;-66
2022/05/18 12:21:38;;;;;;;1.97;1.50;;;27.70;50.30;29.60;97648.00;;;;5010909;28;20214;-66
2022/05/18 12:24:29;;;;;;;1.47;1.27;;;27.60;49.10;29.80;97644.00;;;;5020246;28;20216;-65
2022/05/18 12:27:21;;;;;;;2.27;1.77;;;27.80;49.40;30.30;97630.00;;;;5016589;28;20706;-67
2022/05/18 12:30:15;;;;;;;1.60;1.50;;;28.00;49.90;29.80;97640.00;;;;5005466;28;20230;-68
2022/05/18 12:33:06;;;;;;;1.65;1.50;;;28.00;47.90;31.60;97624.00;;;;5005033;28;20687;-71
2022/05/18 12:36:05;;;;;;;2.08;1.45;;;28.60;48.80;32.30;97649.00;;;;5013931;28;20212;-64
2022/05/18 12:38:57;;;;;;;3.08;1.70;;;29.10;49.70;31.30;97654.00;;;;5012836;28;20248;-63
2022/05/18 12:41:52;;;;;;;3.75;1.27;;;29.10;47.00;28.80;97649.00;;;;5011742;28;20209;-63
2022/05/18 12:44:44;;;;;;;1.63;1.52;;;29.00;46.00;29.90;97645.00;;;;5012733;28;20201;-64
2022/05/18 12:47:45;;;;;;;5.53;1.38;;;28.90;45.90;30.90;97644.00;;;;5004543;28;20210;-63
2022/05/18 12:50:42;;;;;;;2.70;1.17;;;28.90;47.40;30.60;97652.00;;;;5012717;28;20230;-64
2022/05/18 12:53:45;;;;;;;4.07;2.00;;;29.00;47.90;28.00;97650.00;;;;5007117;28;20211;-63
2022/05/18 12:57:11;;;;;;;1.55;1.00;;;28.50;45.00;26.90;97652.00;;;;5021319;28;20591;-63
2022/05/18 13:00:42;;;;;;;3.75;1.55;;;28.30;45.80;30.90;97653.00;;;;5012139;28;20835;-63
2022/05/18 13:03:50;;;;;;;1.73;1.58;;;28.20;49.20;32.10;97666.00;;;;5011036;28;20613;-62
2022/05/18 13:06:46;;;;;;;2.30;1.60;;;28.80;48.50;31.80;97673.00;;;;5004775;28;20203;-64
2022/05/18 13:09:40;;;;;;;2.10;1.48;;;29.30;47.50;31.00;97705.00;;;;5014346;28;20248;-63
2022/05/18 13:12:49;;;;;;;4.00;1.65;;;29.50;47.70;29.50;97719.00;;;;5008797;28;20589;-64